Norwegian Crown — C6II4 — position and weather

sailwx.info

Track history (hours):
 
Tides and Currents Weather Stations Pressure Air Temp Water Temp Dewpoint Dewpoint Depression Visibility Wind Speed Wind Dir Waves Ship Positions

Norwegian Crown

Operator: Norwegian Cruise Line

Last reported at 2018-Nov-09 21:09 UTC. Time now 2018-Nov-15 09:07 UTC.
Position N 39°27' W 009°52'.

Type: Ship. MMSI: 308785000.

Date/timePositionNaut miles runAvg speedWind from/ knotsBaromVisibWave heightAir tempDewpointWater temp
2018-Nov-09 21:09N 39°27' W 009°52'313.5
2018-Nov-09 20:57N 39°25' W 009°51'613.9
2018-Nov-09 20:32N 39°19' W 009°49'714.0
2018-Nov-09 20:02N 39°12' W 009°47'713.9
2018-Nov-09 19:32N 39°05' W 009°46'713.2
2018-Nov-09 19:02N 38°59' W 009°45'713.4
2018-Nov-09 18:32N 38°52' W 009°44'713.2
2018-Nov-09 18:02N 38°46' W 009°43'713.2
2018-Nov-09 17:32N 38°39' W 009°41'713.4
2018-Nov-09 17:02N 38°36' W 009°33'713.4
2018-Nov-09 16:33N 38°36' W 009°25'612.3
2018-Nov-09 16:02N 38°40' W 009°19'611.0
2018-Nov-09 15:31N 38°41' W 009°12'3 7.0
2018-Nov-09 15:03N 38°43' W 009°08'0 0.0
2018-Nov-09 14:31N 38°43' W 009°08'0 0.0
2018-Nov-09 14:01N 38°43' W 009°08'0 0.0
2018-Nov-09 13:31N 38°43' W 009°08'0 0.0
2018-Nov-09 13:01N 38°43' W 009°08'0 0.0
2018-Nov-09 12:31N 38°43' W 009°08'0 0.0
2018-Nov-09 12:01N 38°43' W 009°08'0 0.0
2018-Nov-09 11:31N 38°43' W 009°08'0 0.0
2018-Nov-09 11:01N 38°43' W 009°08'0 0.0
2018-Nov-09 10:31N 38°43' W 009°08'0 0.0
2018-Nov-09 10:01N 38°43' W 009°08'0 0.0
2018-Nov-09 09:31N 38°43' W 009°08'0 0.0
2018-Nov-09 09:01N 38°43' W 009°08'0 0.0
2018-Nov-09 08:31N 38°43' W 009°08'0 0.0
2018-Nov-09 08:01N 38°43' W 009°08'0 0.0
2018-Nov-09 07:31N 38°43' W 009°08'0 0.3
2018-Nov-09 07:02N 38°42' W 009°08'5 9.0
2018-Nov-09 06:31N 38°41' W 009°14'5 9.9
2018-Nov-09 06:02N 38°40' W 009°19'713.7
2018-Nov-09 05:33N 38°35' W 009°26'713.6
2018-Nov-09 05:02N 38°30' W 009°32'612.0
2018-Nov-09 04:32N 38°26' W 009°37'612.9
2018-Nov-09 04:02N 38°21' W 009°43'713.2
2018-Nov-09 03:32N 38°16' W 009°48'815.1
2018-Nov-09 02:58N 38°11' W 009°56'  
2018-Nov-06 00:26N 28°40' W 016°30'1310.7
2018-Nov-05 23:16N 28°40' W 016°16'510.8
2018-Nov-05 22:46N 28°40' W 016°10'310.8
2018-Nov-05 22:30N 28°40' W 016°06'510.4
2018-Nov-05 22:03N 28°37' W 016°02'010.4
2018-Nov-05 22:00N 28°36' W 016°02'510.4
2018-Nov-05 21:30N 28°31' W 016°03'510.9
2018-Nov-05 21:04N 28°29' W 016°08'110.9
2018-Nov-05 21:00N 28°29' W 016°09'5 9.1
2018-Nov-05 20:31N 28°29' W 016°14'1 1.8
2018-Nov-05 20:03N 28°28' W 016°15'0 0.0
2018-Nov-05 20:00N 28°28' W 016°15'0 0.0
2018-Nov-05 19:30N 28°28' W 016°15'0 0.0
2018-Nov-05 19:03N 28°28' W 016°15'0 0.0
2018-Nov-05 19:00N 28°28' W 016°15'0 0.0
2018-Nov-05 18:30N 28°28' W 016°15'0 0.0
2018-Nov-05 18:03N 28°28' W 016°15'0 0.0
2018-Nov-05 18:00N 28°28' W 016°15'0 0.0
2018-Nov-05 17:30N 28°28' W 016°15'0 0.0
2018-Nov-05 17:03N 28°28' W 016°15'0 0.0
2018-Nov-05 17:00N 28°28' W 016°15'0 0.0
2018-Nov-05 16:30N 28°28' W 016°15'0 0.0
2018-Nov-05 16:03N 28°28' W 016°15'0 0.0
2018-Nov-05 16:00N 28°28' W 016°15'0 0.0
2018-Nov-05 15:30N 28°28' W 016°15'0 0.0
2018-Nov-05 15:03N 28°28' W 016°15'0 0.0
2018-Nov-05 15:00N 28°28' W 016°15'0 0.0
2018-Nov-05 14:30N 28°28' W 016°15'0 0.0
2018-Nov-05 14:03N 28°28' W 016°15'0 0.0
2018-Nov-05 14:00N 28°28' W 016°15'0 0.0
2018-Nov-05 13:03N 28°28' W 016°15'0 0.0
2018-Nov-05 13:00N 28°28' W 016°15'0 0.0
2018-Nov-05 12:30N 28°28' W 016°15'0 0.0
2018-Nov-05 12:03N 28°28' W 016°15'0 0.0
2018-Nov-05 12:00N 28°28' W 016°15'0 0.0
2018-Nov-05 11:30N 28°28' W 016°15'0 0.0
2018-Nov-05 11:03N 28°28' W 016°15'0 0.0
2018-Nov-05 11:00N 28°28' W 016°15'0 0.0
2018-Nov-05 10:30N 28°28' W 016°15'0 0.0
2018-Nov-05 10:03N 28°28' W 016°15'0 0.0
2018-Nov-05 10:00N 28°28' W 016°15'0 0.0
2018-Nov-05 09:30N 28°28' W 016°15'0 0.0
2018-Nov-05 09:03N 28°28' W 016°15'0 0.0
2018-Nov-05 09:00N 28°28' W 016°15'0 0.0
2018-Nov-05 08:30N 28°28' W 016°15'0 0.0
2018-Nov-05 08:03N 28°28' W 016°15'0 0.0
2018-Nov-05 08:00N 28°28' W 016°15'0 0.0
2018-Nov-05 07:30N 28°28' W 016°15'1 2.2
2018-Nov-05 07:03N 28°29' W 016°14'0 7.5
2018-Nov-05 07:00N 28°29' W 016°13'5 9.7
2018-Nov-05 06:31N 28°29' W 016°08'512.0
2018-Nov-05 06:03N 28°31' W 016°02'111.8
2018-Nov-05 06:00N 28°31' W 016°02'611.5
2018-Nov-05 05:30N 28°35' W 015°56'511.2
2018-Nov-05 05:03N 28°37' W 015°51'111.4
2018-Nov-05 05:00N 28°37' W 015°51'611.1
2018-Nov-05 04:30N 28°40' W 015°45'511.0
2018-Nov-05 04:03N 28°41' W 015°40'110.9
2018-Nov-05 04:00N 28°42' W 015°39'5 9.8
2018-Nov-05 03:30N 28°46' W 015°38'4 9.6
2018-Nov-05 03:03N 28°51' W 015°37'111.0
2018-Nov-05 03:00N 28°51' W 015°36'510.7
2018-Nov-05 02:30N 28°50' W 015°30'510.5
2018-Nov-05 02:03N 28°50' W 015°25'111.0
2018-Nov-05 02:00N 28°50' W 015°24'4 8.1
2018-Nov-05 01:30N 28°47' W 015°22'510.2
2018-Nov-05 01:03N 28°42' W 015°22'110.2
2018-Nov-05 01:00N 28°41' W 015°22'510.2
2018-Nov-05 00:30N 28°36' W 015°22'510.4
2018-Nov-05 00:03N 28°32' W 015°22'010.5
2018-Nov-05 00:00N 28°31' W 015°22'510.3
2018-Nov-04 23:30N 28°26' W 015°21'510.3
2018-Nov-04 23:03N 28°21' W 015°21'010.3
2018-Nov-04 23:00N 28°21' W 015°21'510.6
2018-Nov-04 22:31N 28°16' W 015°21'510.7
2018-Nov-04 22:03N 28°11' W 015°21'110.7
2018-Nov-04 22:00N 28°10' W 015°21'4 8.0
2018-Nov-04 21:30N 28°07' W 015°24'2 3.5
2018-Nov-04 21:02N 28°09' W 015°25'0 0.0
2018-Nov-04 20:59N 28°09' W 015°25'0 0.0
2018-Nov-04 20:29N 28°09' W 015°25'0 0.0
2018-Nov-04 20:02N 28°09' W 015°25'0 0.0
2018-Nov-04 19:59N 28°09' W 015°25'0 0.0
2018-Nov-04 19:29N 28°09' W 015°25'0 0.0
2018-Nov-04 19:02N 28°09' W 015°25'0 0.0
2018-Nov-04 18:59N 28°09' W 015°25'0 0.0
2018-Nov-04 18:20N 28°09' W 015°25'0 0.0
2018-Nov-04 18:02N 28°09' W 015°25'0 0.0
2018-Nov-04 17:47N 28°09' W 015°25'0 0.0
2018-Nov-04 17:02N 28°09' W 015°25'0 0.0
2018-Nov-04 16:53N 28°09' W 015°25'0 0.0
2018-Nov-04 16:23N 28°09' W 015°25'0 0.0
2018-Nov-04 16:02N 28°09' W 015°25'0 0.0
2018-Nov-04 15:53N 28°09' W 015°25'0 0.0
2018-Nov-04 15:23N 28°09' W 015°25'0 0.0
2018-Nov-04 14:53N 28°09' W 015°25'0 0.0
2018-Nov-04 14:23N 28°09' W 015°25'0 0.0
2018-Nov-04 13:56N 28°09' W 015°25'0 0.0
2018-Nov-04 13:26N 28°09' W 015°25'0 0.0
2018-Nov-04 12:56N 28°09' W 015°25'0 0.0
2018-Nov-04 12:26N 28°09' W 015°25'0 0.0
2018-Nov-04 11:56N 28°09' W 015°25'0 0.0
2018-Nov-04 11:26N 28°09' W 015°25'0 0.0
2018-Nov-04 10:59N 28°09' W 015°25'0 0.0
2018-Nov-04 10:29N 28°09' W 015°25'0 0.0
2018-Nov-04 09:59N 28°09' W 015°25'0 0.0
2018-Nov-04 09:29N 28°09' W 015°25'0 0.0
2018-Nov-04 08:59N 28°09' W 015°25'0 0.0
2018-Nov-04 08:29N 28°09' W 015°25'0 0.0
2018-Nov-04 08:02N 28°09' W 015°25'0 0.0
2018-Nov-04 07:59N 28°09' W 015°25'0 0.6
2018-Nov-04 07:30N 28°08' W 015°25'2 4.3
2018-Nov-04 07:03N 28°07' W 015°23'0 7.2
2018-Nov-04 07:00N 28°07' W 015°23'4 8.7
2018-Nov-04 06:30N 28°10' W 015°19'511.0
2018-Nov-04 06:03N 28°14' W 015°16'111.5
2018-Nov-04 06:00N 28°15' W 015°16'611.8
2018-Nov-04 05:30N 28°20' W 015°13'511.7
2018-Nov-04 05:03N 28°25' W 015°10'111.8
2018-Nov-04 05:00N 28°25' W 015°10'611.4
2018-Nov-04 04:30N 28°31' W 015°09'511.0
2018-Nov-04 04:03N 28°36' W 015°07'111.1
2018-Nov-04 04:00N 28°36' W 015°07'611.0
2018-Nov-04 03:29N 28°42' W 015°06'510.8
2018-Nov-04 03:03N 28°46' W 015°04'111.0
2018-Nov-04 03:00N 28°47' W 015°04'611.2
2018-Nov-04 02:30N 28°52' W 015°03'511.1
2018-Nov-04 02:03N 28°57' W 015°02'111.1
2018-Nov-04 02:00N 28°58' W 015°01'611.2
2018-Nov-04 01:25N 29°04' W 015°01'2010.8
2018-Nov-03 23:32N 29°24' W 014°54'3311.0
2018-Nov-03 20:30N 29°56' W 014°45'811.2
2018-Nov-03 19:46N 30°04' W 014°42'910.6
2018-Nov-03 18:56N 30°12' W 014°38'1210.9
2018-Nov-03 17:52N 30°23' W 014°34'48115.3
2018-Nov-02 10:23N 37°54' W 011°12'515.5
2018-Nov-02 10:03N 37°59' W 011°09'115.7
2018-Nov-02 09:59N 37°60' W 011°08'815.8
2018-Nov-02 09:27N 38°08' W 011°05'815.9
2018-Nov-02 08:59N 38°15' W 011°01'815.8
2018-Nov-02 08:29N 38°22' W 010°58'715.3
2018-Nov-02 08:03N 38°28' W 010°55'115.2
2018-Nov-02 08:00N 38°29' W 010°55'815.4
2018-Nov-02 07:29N 38°37' W 010°51'1015.7
2018-Nov-02 06:49N 38°46' W 010°46'1815.4
2018-Nov-02 05:39N 39°03' W 010°38'215.5
2018-Nov-02 05:29N 39°05' W 010°37'915.6
2018-Nov-02 04:54N 39°14' W 010°33'13414.5
2018-Nov-01 19:40N 41°05' W 008°54'214.7
2018-Nov-01 19:31N 41°06' W 008°52'714.5
2018-Nov-01 19:03N 41°09' W 008°44'112.6
2018-Nov-01 19:00N 41°09' W 008°44'2 3.2
2018-Nov-01 18:29N 41°11' W 008°42'0 0.0
2018-Nov-01 18:02N 41°11' W 008°42'0 0.0
2018-Nov-01 17:59N 41°11' W 008°42'0 0.0
2018-Nov-01 17:29N 41°11' W 008°42'0 0.0
2018-Nov-01 17:02N 41°11' W 008°42'0 0.0
2018-Nov-01 16:59N 41°11' W 008°42'0 0.0
2018-Nov-01 16:29N 41°11' W 008°42'0 0.0
2018-Nov-01 16:02N 41°11' W 008°42'0 0.0
2018-Nov-01 15:59N 41°11' W 008°42'0 0.0
2018-Nov-01 15:29N 41°11' W 008°42'0 0.0
2018-Nov-01 15:02N 41°11' W 008°42'0 0.0
2018-Nov-01 14:59N 41°11' W 008°42'0 0.0
2018-Nov-01 14:29N 41°11' W 008°42'0 0.0
2018-Nov-01 13:59N 41°11' W 008°42'0 0.0
2018-Nov-01 13:33N 41°11' W 008°42'0 0.1
2018-Nov-01 13:30N 41°11' W 008°42'0 0.8
2018-Nov-01 13:29N 41°11' W 008°42'0 0.0
2018-Nov-01 13:02N 41°11' W 008°42'0 0.0
2018-Nov-01 12:59N 41°11' W 008°42'0 0.0
2018-Nov-01 12:29N 41°11' W 008°42'0 0.0
2018-Nov-01 12:02N 41°11' W 008°42'0 0.0
2018-Nov-01 11:59N 41°11' W 008°42'0 0.1
2018-Nov-01 11:49N 41°11' W 008°42'0 0.2
2018-Nov-01 11:30N 41°11' W 008°42'0 1.5
2018-Nov-01 11:29N 41°11' W 008°42'0 0.0
2018-Nov-01 11:03N 41°11' W 008°42'0 0.9
2018-Nov-01 11:02N 41°11' W 008°42'0 0.5
2018-Nov-01 11:00N 41°11' W 008°42'0 0.9
2018-Nov-01 10:59N 41°11' W 008°42'0 0.0
2018-Nov-01 10:30N 41°11' W 008°42'0 1.2
2018-Nov-01 10:29N 41°11' W 008°42'0 0.0
2018-Nov-01 10:03N 41°11' W 008°42'0 1.1
2018-Nov-01 10:02N 41°11' W 008°42'0 0.7
2018-Nov-01 10:00N 41°11' W 008°42'0 1.2
2018-Nov-01 09:59N 41°11' W 008°42'0 0.2
2018-Nov-01 09:30N 41°11' W 008°42'0 3.6
2018-Nov-01 09:29N 41°11' W 008°42'0 0.0
2018-Nov-01 09:02N 41°11' W 008°42'0 0.0
2018-Nov-01 08:59N 41°11' W 008°42'0 0.0
2018-Nov-01 08:29N 41°11' W 008°42'0 0.0
2018-Nov-01 08:02N 41°11' W 008°42'0 0.0
2018-Nov-01 07:59N 41°11' W 008°42'0 0.0
2018-Nov-01 07:30N 41°11' W 008°42'0 0.6
2018-Nov-01 07:03N 41°10' W 008°42'0 5.9
2018-Nov-01 07:00N 41°10' W 008°42'610.7
2018-Nov-01 06:30N 41°12' W 008°49'  
Track history (hours):
 
Tides and Currents Weather Stations Pressure Air Temp Water Temp Dewpoint Dewpoint Depression Visibility Wind Speed Wind Dir Waves Ship Positions

Norwegian Crown

Operator: Norwegian Cruise Line

Last reported at 2018-Nov-09 21:09 UTC. Time now 2018-Nov-15 09:07 UTC.
Position N 39°27' W 009°52'.

Type: Ship. MMSI: 308785000.

Date/timePositionNaut miles runAvg speedWind from/ knotsBaromVisibWave heightAir tempDewpointWater temp
2018-Nov-09 21:09N 39°27' W 009°52'313.5
2018-Nov-09 20:57N 39°25' W 009°51'613.9
2018-Nov-09 20:32N 39°19' W 009°49'714.0
2018-Nov-09 20:02N 39°12' W 009°47'713.9
2018-Nov-09 19:32N 39°05' W 009°46'713.2
2018-Nov-09 19:02N 38°59' W 009°45'713.4
2018-Nov-09 18:32N 38°52' W 009°44'713.2
2018-Nov-09 18:02N 38°46' W 009°43'713.2
2018-Nov-09 17:32N 38°39' W 009°41'713.4
2018-Nov-09 17:02N 38°36' W 009°33'713.4
2018-Nov-09 16:33N 38°36' W 009°25'612.3
2018-Nov-09 16:02N 38°40' W 009°19'611.0
2018-Nov-09 15:31N 38°41' W 009°12'3 7.0
2018-Nov-09 15:03N 38°43' W 009°08'0 0.0
2018-Nov-09 14:31N 38°43' W 009°08'0 0.0
2018-Nov-09 14:01N 38°43' W 009°08'0 0.0
2018-Nov-09 13:31N 38°43' W 009°08'0 0.0
2018-Nov-09 13:01N 38°43' W 009°08'0 0.0
2018-Nov-09 12:31N 38°43' W 009°08'0 0.0
2018-Nov-09 12:01N 38°43' W 009°08'0 0.0
2018-Nov-09 11:31N 38°43' W 009°08'0 0.0
2018-Nov-09 11:01N 38°43' W 009°08'0 0.0
2018-Nov-09 10:31N 38°43' W 009°08'0 0.0
2018-Nov-09 10:01N 38°43' W 009°08'0 0.0
2018-Nov-09 09:31N 38°43' W 009°08'0 0.0
2018-Nov-09 09:01N 38°43' W 009°08'0 0.0
2018-Nov-09 08:31N 38°43' W 009°08'0 0.0
2018-Nov-09 08:01N 38°43' W 009°08'0 0.0
2018-Nov-09 07:31N 38°43' W 009°08'0 0.3
2018-Nov-09 07:02N 38°42' W 009°08'5 9.0
2018-Nov-09 06:31N 38°41' W 009°14'5 9.9
2018-Nov-09 06:02N 38°40' W 009°19'713.7
2018-Nov-09 05:33N 38°35' W 009°26'713.6
2018-Nov-09 05:02N 38°30' W 009°32'612.0
2018-Nov-09 04:32N 38°26' W 009°37'612.9
2018-Nov-09 04:02N 38°21' W 009°43'713.2
2018-Nov-09 03:32N 38°16' W 009°48'815.1
2018-Nov-09 02:58N 38°11' W 009°56'  
2018-Nov-06 00:26N 28°40' W 016°30'1310.7
2018-Nov-05 23:16N 28°40' W 016°16'510.8
2018-Nov-05 22:46N 28°40' W 016°10'310.8
2018-Nov-05 22:30N 28°40' W 016°06'510.4
2018-Nov-05 22:03N 28°37' W 016°02'010.4
2018-Nov-05 22:00N 28°36' W 016°02'510.4
2018-Nov-05 21:30N 28°31' W 016°03'510.9
2018-Nov-05 21:04N 28°29' W 016°08'110.9
2018-Nov-05 21:00N 28°29' W 016°09'5 9.1
2018-Nov-05 20:31N 28°29' W 016°14'1 1.8
2018-Nov-05 20:03N 28°28' W 016°15'0 0.0
2018-Nov-05 20:00N 28°28' W 016°15'0 0.0
2018-Nov-05 19:30N 28°28' W 016°15'0 0.0
2018-Nov-05 19:03N 28°28' W 016°15'0 0.0
2018-Nov-05 19:00N 28°28' W 016°15'0 0.0
2018-Nov-05 18:30N 28°28' W 016°15'0 0.0
2018-Nov-05 18:03N 28°28' W 016°15'0 0.0
2018-Nov-05 18:00N 28°28' W 016°15'0 0.0
2018-Nov-05 17:30N 28°28' W 016°15'0 0.0
2018-Nov-05 17:03N 28°28' W 016°15'0 0.0
2018-Nov-05 17:00N 28°28' W 016°15'0 0.0
2018-Nov-05 16:30N 28°28' W 016°15'0 0.0
2018-Nov-05 16:03N 28°28' W 016°15'0 0.0
2018-Nov-05 16:00N 28°28' W 016°15'0 0.0
2018-Nov-05 15:30N 28°28' W 016°15'0 0.0
2018-Nov-05 15:03N 28°28' W 016°15'0 0.0
2018-Nov-05 15:00N 28°28' W 016°15'0 0.0
2018-Nov-05 14:30N 28°28' W 016°15'0 0.0
2018-Nov-05 14:03N 28°28' W 016°15'0 0.0
2018-Nov-05 14:00N 28°28' W 016°15'0 0.0
2018-Nov-05 13:03N 28°28' W 016°15'0 0.0
2018-Nov-05 13:00N 28°28' W 016°15'0 0.0
2018-Nov-05 12:30N 28°28' W 016°15'0 0.0
2018-Nov-05 12:03N 28°28' W 016°15'0 0.0
2018-Nov-05 12:00N 28°28' W 016°15'0 0.0
2018-Nov-05 11:30N 28°28' W 016°15'0 0.0
2018-Nov-05 11:03N 28°28' W 016°15'0 0.0
2018-Nov-05 11:00N 28°28' W 016°15'0 0.0
2018-Nov-05 10:30N 28°28' W 016°15'0 0.0
2018-Nov-05 10:03N 28°28' W 016°15'0 0.0
2018-Nov-05 10:00N 28°28' W 016°15'0 0.0
2018-Nov-05 09:30N 28°28' W 016°15'0 0.0
2018-Nov-05 09:03N 28°28' W 016°15'0 0.0
2018-Nov-05 09:00N 28°28' W 016°15'0 0.0
2018-Nov-05 08:30N 28°28' W 016°15'0 0.0
2018-Nov-05 08:03N 28°28' W 016°15'0 0.0
2018-Nov-05 08:00N 28°28' W 016°15'0 0.0
2018-Nov-05 07:30N 28°28' W 016°15'1 2.2
2018-Nov-05 07:03N 28°29' W 016°14'0 7.5
2018-Nov-05 07:00N 28°29' W 016°13'5 9.7
2018-Nov-05 06:31N 28°29' W 016°08'512.0
2018-Nov-05 06:03N 28°31' W 016°02'111.8
2018-Nov-05 06:00N 28°31' W 016°02'611.5
2018-Nov-05 05:30N 28°35' W 015°56'511.2
2018-Nov-05 05:03N 28°37' W 015°51'111.4
2018-Nov-05 05:00N 28°37' W 015°51'611.1
2018-Nov-05 04:30N 28°40' W 015°45'511.0
2018-Nov-05 04:03N 28°41' W 015°40'110.9
2018-Nov-05 04:00N 28°42' W 015°39'5 9.8
2018-Nov-05 03:30N 28°46' W 015°38'4 9.6
2018-Nov-05 03:03N 28°51' W 015°37'111.0
2018-Nov-05 03:00N 28°51' W 015°36'510.7
2018-Nov-05 02:30N 28°50' W 015°30'510.5
2018-Nov-05 02:03N 28°50' W 015°25'111.0
2018-Nov-05 02:00N 28°50' W 015°24'4 8.1
2018-Nov-05 01:30N 28°47' W 015°22'510.2
2018-Nov-05 01:03N 28°42' W 015°22'110.2
2018-Nov-05 01:00N 28°41' W 015°22'510.2
2018-Nov-05 00:30N 28°36' W 015°22'510.4
2018-Nov-05 00:03N 28°32' W 015°22'010.5
2018-Nov-05 00:00N 28°31' W 015°22'510.3
2018-Nov-04 23:30N 28°26' W 015°21'510.3
2018-Nov-04 23:03N 28°21' W 015°21'010.3
2018-Nov-04 23:00N 28°21' W 015°21'510.6
2018-Nov-04 22:31N 28°16' W 015°21'510.7
2018-Nov-04 22:03N 28°11' W 015°21'110.7
2018-Nov-04 22:00N 28°10' W 015°21'4 8.0
2018-Nov-04 21:30N 28°07' W 015°24'2 3.5
2018-Nov-04 21:02N 28°09' W 015°25'0 0.0
2018-Nov-04 20:59N 28°09' W 015°25'0 0.0
2018-Nov-04 20:29N 28°09' W 015°25'0 0.0
2018-Nov-04 20:02N 28°09' W 015°25'0 0.0
2018-Nov-04 19:59N 28°09' W 015°25'0 0.0
2018-Nov-04 19:29N 28°09' W 015°25'0 0.0
2018-Nov-04 19:02N 28°09' W 015°25'0 0.0
2018-Nov-04 18:59N 28°09' W 015°25'0 0.0
2018-Nov-04 18:20N 28°09' W 015°25'0 0.0
2018-Nov-04 18:02N 28°09' W 015°25'0 0.0
2018-Nov-04 17:47N 28°09' W 015°25'0 0.0
2018-Nov-04 17:02N 28°09' W 015°25'0 0.0
2018-Nov-04 16:53N 28°09' W 015°25'0 0.0
2018-Nov-04 16:23N 28°09' W 015°25'0 0.0
2018-Nov-04 16:02N 28°09' W 015°25'0 0.0
2018-Nov-04 15:53N 28°09' W 015°25'0 0.0
2018-Nov-04 15:23N 28°09' W 015°25'0 0.0
2018-Nov-04 14:53N 28°09' W 015°25'0 0.0
2018-Nov-04 14:23N 28°09' W 015°25'0 0.0
2018-Nov-04 13:56N 28°09' W 015°25'0 0.0
2018-Nov-04 13:26N 28°09' W 015°25'0 0.0
2018-Nov-04 12:56N 28°09' W 015°25'0 0.0
2018-Nov-04 12:26N 28°09' W 015°25'0 0.0
2018-Nov-04 11:56N 28°09' W 015°25'0 0.0
2018-Nov-04 11:26N 28°09' W 015°25'0 0.0
2018-Nov-04 10:59N 28°09' W 015°25'0 0.0
2018-Nov-04 10:29N 28°09' W 015°25'0 0.0
2018-Nov-04 09:59N 28°09' W 015°25'0 0.0
2018-Nov-04 09:29N 28°09' W 015°25'0 0.0
2018-Nov-04 08:59N 28°09' W 015°25'0 0.0
2018-Nov-04 08:29N 28°09' W 015°25'0 0.0
2018-Nov-04 08:02N 28°09' W 015°25'0 0.0
2018-Nov-04 07:59N 28°09' W 015°25'0 0.6
2018-Nov-04 07:30N 28°08' W 015°25'2 4.3
2018-Nov-04 07:03N 28°07' W 015°23'0 7.2
2018-Nov-04 07:00N 28°07' W 015°23'4 8.7
2018-Nov-04 06:30N 28°10' W 015°19'511.0
2018-Nov-04 06:03N 28°14' W 015°16'111.5
2018-Nov-04 06:00N 28°15' W 015°16'611.8
2018-Nov-04 05:30N 28°20' W 015°13'511.7
2018-Nov-04 05:03N 28°25' W 015°10'111.8
2018-Nov-04 05:00N 28°25' W 015°10'611.4
2018-Nov-04 04:30N 28°31' W 015°09'511.0
2018-Nov-04 04:03N 28°36' W 015°07'111.1
2018-Nov-04 04:00N 28°36' W 015°07'611.0
2018-Nov-04 03:29N 28°42' W 015°06'510.8
2018-Nov-04 03:03N 28°46' W 015°04'111.0
2018-Nov-04 03:00N 28°47' W 015°04'611.2
2018-Nov-04 02:30N 28°52' W 015°03'511.1
2018-Nov-04 02:03N 28°57' W 015°02'111.1
2018-Nov-04 02:00N 28°58' W 015°01'611.2
2018-Nov-04 01:25N 29°04' W 015°01'2010.8
2018-Nov-03 23:32N 29°24' W 014°54'3311.0
2018-Nov-03 20:30N 29°56' W 014°45'811.2
2018-Nov-03 19:46N 30°04' W 014°42'910.6
2018-Nov-03 18:56N 30°12' W 014°38'1210.9
2018-Nov-03 17:52N 30°23' W 014°34'48115.3
2018-Nov-02 10:23N 37°54' W 011°12'515.5
2018-Nov-02 10:03N 37°59' W 011°09'115.7
2018-Nov-02 09:59N 37°60' W 011°08'815.8
2018-Nov-02 09:27N 38°08' W 011°05'815.9
2018-Nov-02 08:59N 38°15' W 011°01'815.8
2018-Nov-02 08:29N 38°22' W 010°58'715.3
2018-Nov-02 08:03N 38°28' W 010°55'115.2
2018-Nov-02 08:00N 38°29' W 010°55'815.4
2018-Nov-02 07:29N 38°37' W 010°51'1015.7
2018-Nov-02 06:49N 38°46' W 010°46'1815.4
2018-Nov-02 05:39N 39°03' W 010°38'215.5
2018-Nov-02 05:29N 39°05' W 010°37'915.6
2018-Nov-02 04:54N 39°14' W 010°33'13414.5
2018-Nov-01 19:40N 41°05' W 008°54'214.7
2018-Nov-01 19:31N 41°06' W 008°52'714.5
2018-Nov-01 19:03N 41°09' W 008°44'112.6
2018-Nov-01 19:00N 41°09' W 008°44'2 3.2
2018-Nov-01 18:29N 41°11' W 008°42'0 0.0
2018-Nov-01 18:02N 41°11' W 008°42'0 0.0
2018-Nov-01 17:59N 41°11' W 008°42'0 0.0
2018-Nov-01 17:29N 41°11' W 008°42'0 0.0
2018-Nov-01 17:02N 41°11' W 008°42'0 0.0
2018-Nov-01 16:59N 41°11' W 008°42'0 0.0
2018-Nov-01 16:29N 41°11' W 008°42'0 0.0
2018-Nov-01 16:02N 41°11' W 008°42'0 0.0
2018-Nov-01 15:59N 41°11' W 008°42'0 0.0
2018-Nov-01 15:29N 41°11' W 008°42'0 0.0
2018-Nov-01 15:02N 41°11' W 008°42'0 0.0
2018-Nov-01 14:59N 41°11' W 008°42'0 0.0
2018-Nov-01 14:29N 41°11' W 008°42'0 0.0
2018-Nov-01 13:59N 41°11' W 008°42'0 0.0
2018-Nov-01 13:33N 41°11' W 008°42'0 0.1
2018-Nov-01 13:30N 41°11' W 008°42'0 0.8
2018-Nov-01 13:29N 41°11' W 008°42'0 0.0
2018-Nov-01 13:02N 41°11' W 008°42'0 0.0
2018-Nov-01 12:59N 41°11' W 008°42'0 0.0
2018-Nov-01 12:29N 41°11' W 008°42'0 0.0
2018-Nov-01 12:02N 41°11' W 008°42'0 0.0
2018-Nov-01 11:59N 41°11' W 008°42'0 0.1
2018-Nov-01 11:49N 41°11' W 008°42'0 0.2
2018-Nov-01 11:30N 41°11' W 008°42'0 1.5
2018-Nov-01 11:29N 41°11' W 008°42'0 0.0
2018-Nov-01 11:03N 41°11' W 008°42'0 0.9
2018-Nov-01 11:02N 41°11' W 008°42'0 0.5
2018-Nov-01 11:00N 41°11' W 008°42'0 0.9
2018-Nov-01 10:59N 41°11' W 008°42'0 0.0
2018-Nov-01 10:30N 41°11' W 008°42'0 1.2
2018-Nov-01 10:29N 41°11' W 008°42'0 0.0
2018-Nov-01 10:03N 41°11' W 008°42'0 1.1
2018-Nov-01 10:02N 41°11' W 008°42'0 0.7
2018-Nov-01 10:00N 41°11' W 008°42'0 1.2
2018-Nov-01 09:59N 41°11' W 008°42'0 0.2
2018-Nov-01 09:30N 41°11' W 008°42'0 3.6
2018-Nov-01 09:29N 41°11' W 008°42'0 0.0
2018-Nov-01 09:02N 41°11' W 008°42'0 0.0
2018-Nov-01 08:59N 41°11' W 008°42'0 0.0
2018-Nov-01 08:29N 41°11' W 008°42'0 0.0
2018-Nov-01 08:02N 41°11' W 008°42'0 0.0
2018-Nov-01 07:59N 41°11' W 008°42'0 0.0
2018-Nov-01 07:30N 41°11' W 008°42'0 0.6
2018-Nov-01 07:03N 41°10' W 008°42'0 5.9
2018-Nov-01 07:00N 41°10' W 008°42'610.7
2018-Nov-01 06:30N 41°12' W 008°49'  

Dump ship's entire track history